Tours-Val-de-Loire Airport

LFOT · Indre-et-Loire, Centre, France

METAR history LFOT · Tours-Val-de-Loire Airport

Below you see METARs of the last few days. Select a year to browse through older METARs, from the year 2007 onwards.

May 19, 2024

Time Code Weather Temp. Visibility Ceiling Wind METAR/SPECI
09:30
V
16 °C 10 km+ - 360° 360° 0 kt METAR LFOT 190730Z AUTO 00000KT CAVOK 16/12 Q1013 NOSIG
09:00
V
16 °C 10 km+ - Var Var 2 kt METAR LFOT 190700Z AUTO VRB02KT CAVOK 16/12 Q1013 NOSIG
08:30
V
15 °C 10 km+ - Var Var 2 kt METAR LFOT 190630Z AUTO VRB02KT CAVOK 15/12 Q1013 NOSIG
08:00
V
14 °C 10 km+ - Var Var 1 kt METAR LFOT 190600Z AUTO VRB01KT CAVOK 14/12 Q1013 TEMPO 0800 FG VV///
07:30
V
13 °C 10 km+ - Var Var 1 kt METAR LFOT 190530Z AUTO VRB01KT CAVOK 13/12 Q1013 TEMPO 0800 FG VV///
07:00
V
13 °C 10 km+ - 360° 360° 0 kt METAR LFOT 190500Z AUTO 00000KT CAVOK 13/12 Q1012 TEMPO 0800 FG VV///
06:30
V
12 °C 10 km+ - 050° 050° 3 kt METAR LFOT 190430Z AUTO 05003KT CAVOK 12/12 Q1012 TEMPO 0800 FG VV///
06:00
V
12 °C 10 km+ 7,200 ft 060° 060° 2 kt METAR LFOT 190400Z AUTO 06002KT 9999 SCT047 OVC072 12/12 Q1012 TEMPO 0800 FG VV///
05:30
V
13 °C 10 km+ 6,600 ft 130° 130° 2 kt METAR LFOT 190330Z AUTO 13002KT 9999 FEW047 BKN066 BKN078 13/12 Q1012 TEMPO 0800 FG VV///
05:00
V
13 °C 10 km+ - 150° 150° 3 kt METAR LFOT 190300Z AUTO 15003KT CAVOK 13/11 Q1012 TEMPO 2500 BR
04:30
V
12 °C 10 km+ - Var Var 2 kt METAR LFOT 190230Z AUTO VRB02KT CAVOK 12/12 Q1012 TEMPO 2500 BR
04:00
V
12 °C 10 km+ - Var Var 3 kt METAR LFOT 190200Z AUTO VRB03KT CAVOK 12/12 Q1012 TEMPO 2500 BR
03:30
V
12 °C 10 km+ - 090° 090° 4 kt METAR LFOT 190130Z AUTO 09004KT 060V120 CAVOK 12/12 Q1012
03:00
V
13 °C 10 km+ - 130° 130° 3 kt METAR LFOT 190100Z AUTO 13003KT CAVOK 13/11 Q1012
02:30
V
12 °C 10 km+ - 100° 100° 3 kt METAR LFOT 190030Z AUTO 10003KT CAVOK 12/12 Q1013
02:00
V
13 °C 10 km+ - 110° 110° 3 kt METAR LFOT 190000Z AUTO 11003KT CAVOK 13/12 Q1013 NOSIG
01:30
V
12 °C 10 km+ 6,600 ft 120° 120° 3 kt METAR LFOT 182330Z AUTO 12003KT 9999 SCT048 BKN066 BKN078 12/12 Q1013 TEMPO 4000 BR
01:00
V
13 °C 10 km+ - 180° 180° 4 kt METAR LFOT 182300Z AUTO 18004KT 130V210 CAVOK 13/12 Q1013 TEMPO 4000 BR
00:30
V
13 °C 10 km+ - 360° 360° 0 kt METAR LFOT 182230Z AUTO 00000KT CAVOK 13/12 Q1013 TEMPO 4000 BR
00:00
V
14 °C 10 km+ - 070° 070° 3 kt METAR LFOT 182200Z AUTO 07003KT CAVOK 14/13 Q1013 NOSIG

May 18, 2024

Time Code Weather Temp. Visibility Ceiling Wind METAR/SPECI
23:30
V
14 °C 10 km+ - Var Var 2 kt METAR LFOT 182130Z AUTO VRB02KT CAVOK 14/12 Q1013 NOSIG
23:00
V
14 °C 10 km+ - 150° 150° 2 kt METAR LFOT 182100Z AUTO 15002KT CAVOK 14/12 Q1013 NOSIG
22:30
V
14 °C 10 km+ - Var Var 3 kt METAR LFOT 182030Z AUTO VRB03KT CAVOK 14/12 Q1013 NOSIG
22:00
V
15 °C 10 km+ - 350° 350° 4 kt METAR LFOT 182000Z AUTO 35004KT 320V040 CAVOK 15/12 Q1013 NOSIG
21:30
V
15 °C 10 km+ - Var Var 2 kt METAR LFOT 181930Z AUTO VRB02KT CAVOK 15/12 Q1012 NOSIG
21:00
V
15 °C 10 km+ - 110° 110° 1 kt METAR LFOT 181900Z AUTO 11001KT CAVOK 15/13 Q1012 TEMPO 4000 SHRA SCT040CB
20:30
V
16 °C 10 km+ - 290° 290° 2 kt METAR LFOT 181830Z AUTO 29002KT CAVOK 16/13 Q1012 TEMPO 4000 SHRA SCT040CB
20:00
V
15 °C 10 km+ - Var Var 1 kt METAR LFOT 181800Z AUTO VRB01KT CAVOK 15/12 Q1012 TEMPO 4000 SHRA SCT040CB
19:30
V
16 °C 10 km+ - Var Var 3 kt METAR LFOT 181730Z AUTO VRB03KT CAVOK 16/12 Q1012 TEMPO 2500 TSRAGS SCT020CB
19:00
V
15 °C 10 km+ - Var Var 1 kt METAR LFOT 181700Z AUTO VRB01KT CAVOK 15/11 Q1012 TEMPO 2500 TSRAGS SCT020CB
18:30
V
15 °C 10 km+ - 110° 110° 4 kt METAR LFOT 181630Z AUTO 11004KT 9999 -RA //////TCU 15/12 Q1012 TEMPO 2500 TSRAGS SCT020CB
18:00
V
15 °C 10 km+ - 060° 060° 5 kt METAR LFOT 181600Z AUTO 06005KT 030V110 9999 ///CB 15/12 Q1012 TEMPO 2500 TSRAGS
17:30
V
15 °C 10 km+ - 050° 050° 6 kt METAR LFOT 181530Z AUTO 05006KT 020V080 9999 //////CB 15/12 Q1012 TEMPO 2500 TSRAGS
17:00
V
15 °C 10 km+ - 060° 060° 9 kt METAR LFOT 181500Z AUTO 06009KT 030V090 9999 -RA //////CB 15/12 Q1012 TEMPO 2500 TSRAGS
16:30
V
16 °C 10 km+ - 040° 040° 4 kt METAR LFOT 181430Z AUTO 04004KT 350V080 9999 //////CB 16/10 Q1012 TEMPO 2500 TSRAGS
16:00
V
16 °C 10 km+ 4,000 ft 040° 040° 4 kt METAR LFOT 181400Z AUTO 04004KT 360V090 9999 BKN040/// OVC130/// //////CB 16/09 Q1012 TEMPO 2500 TSRAGS
15:30
V
19 °C 10 km+ 12,000 ft Var Var 4 kt METAR LFOT 181330Z AUTO VRB04KT 9999 FEW039/// BKN120/// ///CB 19/10 Q1012 TEMPO 2500 TSRAGS
15:00
V
20 °C 10 km+ 4,400 ft Var Var 5 kt METAR LFOT 181300Z AUTO VRB05KT 9999 VCTS FEW038/// BKN044/// BKN054/// //////CB 20/12 Q1012 TEMPO 2500 TSRAGS
14:30
V
19 °C 10 km+ 3,800 ft 210° 210° 5 kt METAR LFOT 181230Z AUTO 21005KT 150V250 9999 BKN038/// BKN044/// BKN050/// ///CB 19/11 Q1012 TEMPO 2500 TSRAGS
14:00
V
20 °C 10 km+ - 250° 250° 5 kt METAR LFOT 181200Z AUTO 25005KT 210V300 9999 FEW044/// ///CB 20/11 Q1012 TEMPO 2500 TSRAGS
13:30
V
19 °C 10 km+ - Var Var 2 kt METAR LFOT 181130Z AUTO VRB02KT CAVOK 19/10 Q1012 TEMPO 2500 TSRAGS SCT020CB
13:00
V
19 °C 10 km+ - Var Var 3 kt METAR LFOT 181100Z AUTO VRB03KT CAVOK 19/11 Q1012 TEMPO 2500 TSRAGS SCT030CB
12:30
V
19 °C 10 km+ - Var Var 2 kt METAR LFOT 181030Z AUTO VRB02KT CAVOK 19/10 Q1012 TEMPO 2500 TSRAGS SCT030CB
12:00
V
18 °C 10 km+ - Var Var 2 kt METAR LFOT 181000Z AUTO VRB02KT 9999 FEW028 SCT250 18/10 Q1012 TEMPO 4000 SHRA SCT035CB
11:30
V
18 °C 10 km+ - Var Var 3 kt METAR LFOT 180930Z AUTO VRB03KT 9999 FEW026 18/11 Q1012 TEMPO 4000 SHRA SCT035CB
11:00
V
17 °C 10 km+ - 010° 010° 4 kt METAR LFOT 180900Z AUTO 01004KT 310V060 CAVOK 17/11 Q1012 NOSIG
10:30
V
17 °C 10 km+ - 340° 340° 3 kt METAR LFOT 180830Z AUTO 34003KT 230V040 CAVOK 17/11 Q1012 NOSIG
10:00
V
16 °C 10 km+ - 360° 360° 4 kt METAR LFOT 180800Z AUTO 36004KT 320V040 CAVOK 16/10 Q1012 NOSIG
09:30
V
16 °C 10 km+ - 340° 340° 3 kt METAR LFOT 180730Z AUTO 34003KT 300V030 CAVOK 16/11 Q1012 NOSIG
09:00
V
15 °C 10 km+ - Var Var 3 kt METAR LFOT 180700Z AUTO VRB03KT CAVOK 15/11 Q1012 NOSIG
08:30
V
13 °C 10 km+ - Var Var 3 kt METAR LFOT 180630Z AUTO VRB03KT CAVOK 13/12 Q1012 NOSIG
08:00
V
12 °C 10 km+ - Var Var 2 kt METAR LFOT 180600Z AUTO VRB02KT CAVOK 12/12 Q1012 TEMPO 1500 BR BKN002
07:30
V
10 °C 10 km+ - Var Var 1 kt METAR LFOT 180530Z AUTO VRB01KT CAVOK 10/10 Q1012 TEMPO 1500 BR BKN005
07:00
V
10 °C 10 km+ - 290° 290° 1 kt METAR LFOT 180500Z AUTO 29001KT CAVOK 10/10 Q1012 TEMPO 1500 BR BKN002
06:30
V
10 °C 10 km+ - 260° 260° 1 kt METAR LFOT 180430Z AUTO 26001KT CAVOK 10/10 Q1012 TEMPO 1500 BR BKN002
06:00
V
10 °C 10 km+ - Var Var 2 kt METAR LFOT 180400Z AUTO VRB02KT CAVOK 10/09 Q1011 TEMPO 1500 BR BKN002
05:30
V
11 °C 10 km+ - 350° 350° 3 kt METAR LFOT 180330Z AUTO 35003KT CAVOK 11/10 Q1011 TEMPO 1500 BR BKN002
05:00
V
11 °C 10 km+ - 280° 280° 1 kt METAR LFOT 180300Z AUTO 28001KT CAVOK 11/10 Q1011 TEMPO 1500 BR BKN002
04:30
V
11 °C 10 km+ - 360° 360° 0 kt METAR LFOT 180230Z AUTO 00000KT CAVOK 11/11 Q1011 TEMPO 1500 BR BKN002
04:00
V
12 °C 10 km+ - 360° 360° 0 kt METAR LFOT 180200Z AUTO 00000KT CAVOK 12/11 Q1011 TEMPO BKN005
03:30
V
12 °C 10 km+ - Var Var 2 kt METAR LFOT 180130Z AUTO VRB02KT CAVOK 12/11 Q1011 TEMPO BKN005
03:00
V
12 °C 10 km+ - 300° 300° 2 kt METAR LFOT 180100Z AUTO 30002KT CAVOK 12/11 Q1011 NOSIG
02:30
V
13 °C 10 km+ - Var Var 3 kt METAR LFOT 180030Z AUTO VRB03KT CAVOK 13/12 Q1011 NOSIG
02:00
V
13 °C 10 km+ - Var Var 3 kt METAR LFOT 180000Z AUTO VRB03KT CAVOK 13/11 Q1012 NOSIG
01:30
V
13 °C 10 km+ - Var Var 2 kt METAR LFOT 172330Z AUTO VRB02KT 9999 //////TCU 13/11 Q1012 BECMG FEW020 SCT060
01:00
V
13 °C 10 km+ - 360° 360° 0 kt METAR LFOT 172300Z AUTO 00000KT 9999 ///TCU 13/11 Q1012 TEMPO 4000 -SHRA FEW050CB BKN060
00:30
V
13 °C 10 km+ - 360° 360° 0 kt METAR LFOT 172230Z AUTO 00000KT CAVOK 13/11 Q1012 TEMPO 4000 -SHRA FEW050CB BKN060
00:00
V
13 °C 10 km+ - Var Var 2 kt METAR LFOT 172200Z AUTO VRB02KT CAVOK 13/10 Q1012 TEMPO 4000 -SHRA FEW050CB BKN060

May 17, 2024

Time Code Weather Temp. Visibility Ceiling Wind METAR/SPECI
23:30
V
14 °C 10 km+ - 270° 270° 3 kt METAR LFOT 172130Z AUTO 27003KT 240V340 CAVOK 14/11 Q1012 TEMPO 4000 -SHRA FEW050CB BKN060
23:00
V
14 °C 10 km+ - 330° 330° 3 kt METAR LFOT 172100Z AUTO 33003KT 280V020 9999 //////TCU 14/11 Q1012 TEMPO 4000 -SHRA FEW050CB BKN060
22:30
V
14 °C 10 km+ - 180° 180° 3 kt METAR LFOT 172030Z AUTO 18003KT 9999 //////TCU 14/12 Q1012 TEMPO 4000 -SHRA FEW050CB BKN060
22:00
V
14 °C 10 km+ - 120° 120° 2 kt METAR LFOT 172000Z AUTO 12002KT 9999 ///CB 14/12 Q1011 TEMPO 4000 -SHRA
21:30
V
14 °C 10 km+ - 080° 080° 3 kt METAR LFOT 171930Z AUTO 08003KT CAVOK 14/12 Q1011 TEMPO 4000 -SHRA FEW050CB BKN060
21:00
V
15 °C 10 km+ - 060° 060° 4 kt METAR LFOT 171900Z AUTO 06004KT 020V080 CAVOK 15/12 Q1011 TEMPO 4000 -SHRA FEW050CB BKN060
20:30
V
16 °C 10 km+ - 350° 350° 3 kt METAR LFOT 171830Z AUTO 35003KT 290V050 CAVOK 16/11 Q1010 TEMPO 4000 -SHRA FEW050CB BKN060
20:00
V
16 °C 10 km+ - 050° 050° 4 kt METAR LFOT 171800Z AUTO 05004KT 010V080 9999 ///CB 16/12 Q1010 TEMPO 4000 -SHRA
19:30
V
18 °C 10 km+ - 340° 340° 4 kt METAR LFOT 171730Z AUTO 34004KT 320V020 9999 ///CB 18/11 Q1010 TEMPO 4000 -SHRA
19:00
V
18 °C 10 km+ - 280° 280° 5 kt METAR LFOT 171700Z AUTO 28005KT 250V310 9999 //////TCU 18/11 Q1010 TEMPO 25015G30KT 4000 SHRA FEW015 SCT030CB BKN040
18:30
V
17 °C 10 km+ - 320° 320° 6 kt METAR LFOT 171630Z AUTO 32006KT 280V360 9999 //////CB 17/11 Q1010 TEMPO 25015G30KT 4000 SHRA
18:00
V
15 °C 10 km+ 9,000 ft 280° 280° 8 kt METAR LFOT 171600Z AUTO 28008KT 250V310 9999 FEW042/// BKN090/// BKN130/// //////CB 15/11 Q1010 TEMPO 25015G30KT 4000 SHRA
17:30
V
16 °C 10 km+ 5,800 ft 280° 280° 8 kt METAR LFOT 171530Z AUTO 28008KT 250V310 9999 VCTS FEW019/// BKN058/// BKN068/// //////CB 16/11 Q1010 TEMPO 25015G30KT 4000 SHRA
17:00
V
17 °C 10 km+ 5,000 ft 240° 240° 9 kt METAR LFOT 171500Z AUTO 24009KT 210V280 9999 FEW041/// BKN050/// BKN062/// //////CB 17/10 Q1010 TEMPO 25015G30KT 4000 SHRA
16:30
V
19 °C 10 km+ - Var Var 3 kt METAR LFOT 171430Z AUTO VRB03KT 9999 ///CB 19/08 Q1010 TEMPO 25015G30KT 4000 SHRA
16:00
V
20 °C 10 km+ - 140° 140° 6 kt METAR LFOT 171400Z AUTO 14006KT 080V200 9999 //////CB 20/08 Q1010 TEMPO 25015G30KT 4000 SHRA
15:30
V
20 °C 10 km+ - 160° 160° 5 kt METAR LFOT 171330Z AUTO 16005KT 080V230 9999 SCT047 20/08 Q1010 TEMPO 25015G30KT 4000 SHRA FEW015 SCT030CB BKN040
15:00
V
20 °C 10 km+ - Var Var 4 kt METAR LFOT 171300Z AUTO VRB04KT CAVOK 20/09 Q1010 TEMPO FEW040CB
14:30
V
20 °C 10 km+ - 150° 150° 5 kt METAR LFOT 171230Z AUTO 15005KT 110V200 CAVOK 20/09 Q1010 TEMPO FEW040CB
14:00
V
19 °C 10 km+ - 140° 140° 7 kt METAR LFOT 171200Z AUTO 14007KT 110V210 CAVOK 19/10 Q1010 TEMPO FEW040CB
13:30
V
19 °C 10 km+ - 180° 180° 6 kt METAR LFOT 171130Z AUTO 18006KT 130V230 CAVOK 19/10 Q1010 TEMPO FEW030TCU
13:00
V
18 °C 10 km+ - 160° 160° 5 kt METAR LFOT 171100Z AUTO 16005KT 110V260 9999 FEW031 18/10 Q1010 TEMPO FEW030TCU
12:30
V
17 °C 10 km+ 6,200 ft 150° 150° 5 kt METAR LFOT 171030Z AUTO 15005KT 090V220 9999 FEW028 BKN062 17/09 Q1010 TEMPO FEW030TCU
12:00
M
17 °C 10 km+ 2,600 ft 160° 160° 4 kt METAR LFOT 171000Z AUTO 16004KT 070V230 9999 BKN026 BKN034 BKN048 17/10 Q1010 NOSIG
11:30
V
16 °C 10 km+ 3,200 ft Var Var 3 kt METAR LFOT 170930Z AUTO VRB03KT 9999 SCT023 BKN032 OVC046 16/10 Q1010 NOSIG
11:00
M
15 °C 10 km+ 2,200 ft Var Var 1 kt METAR LFOT 170900Z AUTO VRB01KT 9999 BKN022 OVC027 15/11 Q1010 NOSIG
10:30
M
15 °C 10 km+ 2,100 ft Var Var 3 kt METAR LFOT 170830Z AUTO VRB03KT 9999 SCT015 BKN021 15/10 Q1010 NOSIG
10:00
M
14 °C 10 km+ 1,100 ft 190° 190° 6 kt METAR LFOT 170800Z AUTO 19006KT 120V240 9999 BKN011 14/11 Q1010 BECMG NSC
09:30
V
13 °C 10 km+ - 160° 160° 3 kt METAR LFOT 170730Z AUTO 16003KT 120V220 9999 FEW009 SCT018 13/10 Q1010 NOSIG
09:00
V
13 °C 10 km+ - 150° 150° 3 kt METAR LFOT 170700Z AUTO 15003KT 110V200 9999 FEW007 13/11 Q1009 NOSIG
08:30
V
12 °C 10 km+ - 130° 130° 4 kt METAR LFOT 170630Z AUTO 13004KT CAVOK 12/10 Q1009 NOSIG
08:00
V
11 °C 10 km+ - 120° 120° 4 kt METAR LFOT 170600Z AUTO 12004KT CAVOK 11/09 Q1009 NOSIG
Report a change